sensor_id;sensor_type;location;lat;lon;timestamp;P1;durP1;ratioP1;P2;durP2;ratioP2
48667;SDS011;34453;52.198;5.004;2024-01-15T00:00:16;8.18;;;1.40;;
48667;SDS011;34453;52.198;5.004;2024-01-15T00:02:41;8.15;;;1.35;;
48667;SDS011;34453;52.198;5.004;2024-01-15T00:05:07;14.15;;;2.13;;
48667;SDS011;34453;52.198;5.004;2024-01-15T00:07:33;4.28;;;1.55;;
48667;SDS011;34453;52.198;5.004;2024-01-15T00:09:58;6.35;;;1.38;;
48667;SDS011;34453;52.198;5.004;2024-01-15T00:12:23;11.23;;;1.65;;
48667;SDS011;34453;52.198;5.004;2024-01-15T00:14:49;9.63;;;1.65;;
48667;SDS011;34453;52.198;5.004;2024-01-15T00:17:14;4.85;;;1.40;;
48667;SDS011;34453;52.198;5.004;2024-01-15T00:19:40;7.75;;;1.98;;
48667;SDS011;34453;52.198;5.004;2024-01-15T00:22:05;12.10;;;1.20;;
48667;SDS011;34453;52.198;5.004;2024-01-15T00:24:31;13.15;;;2.22;;
48667;SDS011;34453;52.198;5.004;2024-01-15T00:26:56;5.80;;;1.40;;
48667;SDS011;34453;52.198;5.004;2024-01-15T00:29:22;9.55;;;1.60;;
48667;SDS011;34453;52.198;5.004;2024-01-15T00:31:47;12.93;;;1.98;;
48667;SDS011;34453;52.198;5.004;2024-01-15T00:34:13;9.23;;;1.85;;
48667;SDS011;34453;52.198;5.004;2024-01-15T00:36:39;13.00;;;2.10;;
48667;SDS011;34453;52.198;5.004;2024-01-15T00:39:05;16.10;;;1.55;;
48667;SDS011;34453;52.198;5.004;2024-01-15T00:41:31;11.98;;;1.67;;
48667;SDS011;34453;52.198;5.004;2024-01-15T00:43:56;3.63;;;1.50;;
48667;SDS011;34453;52.198;5.004;2024-01-15T00:46:22;10.18;;;1.60;;
48667;SDS011;34453;52.198;5.004;2024-01-15T00:48:47;14.63;;;2.03;;
48667;SDS011;34453;52.198;5.004;2024-01-15T00:51:13;12.75;;;1.30;;
48667;SDS011;34453;52.198;5.004;2024-01-15T00:53:38;9.90;;;1.83;;
48667;SDS011;34453;52.198;5.004;2024-01-15T00:56:04;13.05;;;1.83;;
48667;SDS011;34453;52.198;5.004;2024-01-15T00:58:29;14.57;;;1.73;;
48667;SDS011;34453;52.198;5.004;2024-01-15T01:00:55;15.48;;;2.08;;
48667;SDS011;34453;52.198;5.004;2024-01-15T01:03:20;8.85;;;1.67;;
48667;SDS011;34453;52.198;5.004;2024-01-15T01:05:48;6.13;;;1.25;;
48667;SDS011;34453;52.198;5.004;2024-01-15T01:08:15;10.82;;;1.52;;
48667;SDS011;34453;52.198;5.004;2024-01-15T01:10:40;13.02;;;1.38;;
48667;SDS011;34453;52.198;5.004;2024-01-15T01:13:08;11.10;;;1.60;;
48667;SDS011;34453;52.198;5.004;2024-01-15T01:15:33;9.95;;;1.15;;
48667;SDS011;34453;52.198;5.004;2024-01-15T01:17:59;9.63;;;1.50;;
48667;SDS011;34453;52.198;5.004;2024-01-15T01:20:25;8.25;;;1.58;;
48667;SDS011;34453;52.198;5.004;2024-01-15T01:22:50;7.38;;;2.42;;
48667;SDS011;34453;52.198;5.004;2024-01-15T01:25:16;13.20;;;1.50;;
48667;SDS011;34453;52.198;5.004;2024-01-15T01:27:41;6.90;;;1.10;;
48667;SDS011;34453;52.198;5.004;2024-01-15T01:30:07;16.08;;;1.50;;
48667;SDS011;34453;52.198;5.004;2024-01-15T01:32:32;7.25;;;1.02;;
48667;SDS011;34453;52.198;5.004;2024-01-15T01:34:58;13.68;;;1.30;;
48667;SDS011;34453;52.198;5.004;2024-01-15T01:37:24;8.07;;;1.30;;
48667;SDS011;34453;52.198;5.004;2024-01-15T01:39:49;3.33;;;1.17;;
48667;SDS011;34453;52.198;5.004;2024-01-15T01:42:15;9.38;;;1.23;;
48667;SDS011;34453;52.198;5.004;2024-01-15T01:44:40;7.13;;;1.23;;
48667;SDS011;34453;52.198;5.004;2024-01-15T01:47:06;7.22;;;1.25;;
48667;SDS011;34453;52.198;5.004;2024-01-15T01:49:32;4.82;;;1.20;;
48667;SDS011;34453;52.198;5.004;2024-01-15T01:52:01;7.57;;;1.27;;
48667;SDS011;34453;52.198;5.004;2024-01-15T01:54:29;3.40;;;0.68;;
48667;SDS011;34453;52.198;5.004;2024-01-15T01:56:57;9.93;;;1.85;;
48667;SDS011;34453;52.198;5.004;2024-01-15T01:59:23;3.08;;;0.85;;
48667;SDS011;34453;52.198;5.004;2024-01-15T02:01:52;6.38;;;0.80;;
48667;SDS011;34453;52.198;5.004;2024-01-15T02:04:19;4.68;;;1.08;;
48667;SDS011;34453;52.198;5.004;2024-01-15T02:06:45;6.90;;;0.93;;
48667;SDS011;34453;52.198;5.004;2024-01-15T02:09:10;5.18;;;1.85;;
48667;SDS011;34453;52.198;5.004;2024-01-15T02:11:40;3.92;;;1.83;;
48667;SDS011;34453;52.198;5.004;2024-01-15T02:14:06;4.03;;;0.70;;
48667;SDS011;34453;52.198;5.004;2024-01-15T02:16:31;4.10;;;0.75;;
48667;SDS011;34453;52.198;5.004;2024-01-15T02:18:57;2.17;;;0.82;;
48667;SDS011;34453;52.198;5.004;2024-01-15T02:21:22;10.05;;;2.03;;
48667;SDS011;34453;52.198;5.004;2024-01-15T02:23:48;3.13;;;0.80;;
48667;SDS011;34453;52.198;5.004;2024-01-15T02:26:13;6.97;;;1.02;;
48667;SDS011;34453;52.198;5.004;2024-01-15T02:28:39;5.13;;;2.03;;
48667;SDS011;34453;52.198;5.004;2024-01-15T02:31:06;7.43;;;1.08;;
48667;SDS011;34453;52.198;5.004;2024-01-15T02:33:32;6.63;;;1.27;;
48667;SDS011;34453;52.198;5.004;2024-01-15T02:35:57;6.18;;;1.98;;
48667;SDS011;34453;52.198;5.004;2024-01-15T02:38:22;5.80;;;1.17;;
48667;SDS011;34453;52.198;5.004;2024-01-15T02:40:49;6.22;;;1.17;;
48667;SDS011;34453;52.198;5.004;2024-01-15T02:43:14;8.55;;;1.48;;
48667;SDS011;34453;52.198;5.004;2024-01-15T02:45:40;1.23;;;0.80;;
48667;SDS011;34453;52.198;5.004;2024-01-15T02:48:06;7.78;;;0.98;;
48667;SDS011;34453;52.198;5.004;2024-01-15T02:50:31;9.10;;;1.00;;
48667;SDS011;34453;52.198;5.004;2024-01-15T02:52:57;11.02;;;1.27;;
48667;SDS011;34453;52.198;5.004;2024-01-15T02:55:22;4.32;;;0.95;;
48667;SDS011;34453;52.198;5.004;2024-01-15T02:57:48;10.25;;;1.45;;
48667;SDS011;34453;52.198;5.004;2024-01-15T03:00:13;8.77;;;2.35;;
48667;SDS011;34453;52.198;5.004;2024-01-15T03:02:40;8.93;;;0.95;;
48667;SDS011;34453;52.198;5.004;2024-01-15T03:05:08;4.30;;;0.88;;
48667;SDS011;34453;52.198;5.004;2024-01-15T03:07:34;6.18;;;1.20;;
48667;SDS011;34453;52.198;5.004;2024-01-15T03:10:00;3.28;;;1.00;;
48667;SDS011;34453;52.198;5.004;2024-01-15T03:12:25;5.50;;;1.05;;
48667;SDS011;34453;52.198;5.004;2024-01-15T03:14:50;7.40;;;1.42;;
48667;SDS011;34453;52.198;5.004;2024-01-15T03:17:16;14.93;;;1.58;;
48667;SDS011;34453;52.198;5.004;2024-01-15T03:19:41;5.78;;;1.00;;
48667;SDS011;34453;52.198;5.004;2024-01-15T03:22:07;3.83;;;0.80;;
48667;SDS011;34453;52.198;5.004;2024-01-15T03:24:34;2.28;;;0.85;;
48667;SDS011;34453;52.198;5.004;2024-01-15T03:27:00;7.93;;;1.33;;
48667;SDS011;34453;52.198;5.004;2024-01-15T03:29:26;6.63;;;1.08;;
48667;SDS011;34453;52.198;5.004;2024-01-15T03:31:51;11.75;;;1.45;;
48667;SDS011;34453;52.198;5.004;2024-01-15T03:34:17;6.85;;;1.17;;
48667;SDS011;34453;52.198;5.004;2024-01-15T03:36:42;12.32;;;1.50;;
48667;SDS011;34453;52.198;5.004;2024-01-15T03:39:08;3.58;;;1.13;;
48667;SDS011;34453;52.198;5.004;2024-01-15T03:41:33;9.43;;;1.50;;
48667;SDS011;34453;52.198;5.004;2024-01-15T03:43:58;5.43;;;1.15;;
48667;SDS011;34453;52.198;5.004;2024-01-15T03:46:24;6.22;;;0.82;;
48667;SDS011;34453;52.198;5.004;2024-01-15T03:48:50;3.28;;;0.80;;
48667;SDS011;34453;52.198;5.004;2024-01-15T03:51:16;1.50;;;1.00;;
48667;SDS011;34453;52.198;5.004;2024-01-15T03:53:43;5.68;;;0.88;;
48667;SDS011;34453;52.198;5.004;2024-01-15T03:56:08;4.90;;;0.80;;
48667;SDS011;34453;52.198;5.004;2024-01-15T03:58:34;3.63;;;0.73;;
48667;SDS011;34453;52.198;5.004;2024-01-15T04:00:59;3.28;;;0.98;;
48667;SDS011;34453;52.198;5.004;2024-01-15T04:03:24;7.95;;;0.93;;
48667;SDS011;34453;52.198;5.004;2024-01-15T04:05:50;6.35;;;0.88;;
48667;SDS011;34453;52.198;5.004;2024-01-15T04:08:15;3.03;;;0.63;;
48667;SDS011;34453;52.198;5.004;2024-01-15T04:10:41;2.75;;;0.98;;
48667;SDS011;34453;52.198;5.004;2024-01-15T04:13:06;3.50;;;1.20;;
48667;SDS011;34453;52.198;5.004;2024-01-15T04:15:33;3.65;;;1.00;;
48667;SDS011;34453;52.198;5.004;2024-01-15T04:17:58;6.57;;;0.80;;
48667;SDS011;34453;52.198;5.004;2024-01-15T04:20:26;4.00;;;0.73;;
48667;SDS011;34453;52.198;5.004;2024-01-15T04:22:51;2.60;;;1.00;;
48667;SDS011;34453;52.198;5.004;2024-01-15T04:25:17;16.40;;;1.30;;
48667;SDS011;34453;52.198;5.004;2024-01-15T04:27:42;5.93;;;0.80;;
48667;SDS011;34453;52.198;5.004;2024-01-15T04:30:08;3.35;;;0.70;;
48667;SDS011;34453;52.198;5.004;2024-01-15T04:32:34;3.28;;;0.70;;
48667;SDS011;34453;52.198;5.004;2024-01-15T04:34:59;1.38;;;0.82;;
48667;SDS011;34453;52.198;5.004;2024-01-15T04:37:25;3.83;;;0.93;;
48667;SDS011;34453;52.198;5.004;2024-01-15T04:39:50;11.05;;;1.15;;
48667;SDS011;34453;52.198;5.004;2024-01-15T04:42:18;6.57;;;1.27;;
48667;SDS011;34453;52.198;5.004;2024-01-15T04:44:43;5.05;;;0.88;;
48667;SDS011;34453;52.198;5.004;2024-01-15T04:47:08;8.73;;;1.23;;
48667;SDS011;34453;52.198;5.004;2024-01-15T04:49:34;12.52;;;1.45;;
48667;SDS011;34453;52.198;5.004;2024-01-15T04:51:59;9.02;;;1.25;;
48667;SDS011;34453;52.198;5.004;2024-01-15T04:54:25;3.33;;;1.48;;
48667;SDS011;34453;52.198;5.004;2024-01-15T04:56:50;1.45;;;1.20;;
48667;SDS011;34453;52.198;5.004;2024-01-15T04:59:16;7.20;;;1.30;;
48667;SDS011;34453;52.198;5.004;2024-01-15T05:01:41;1.20;;;0.85;;
48667;SDS011;34453;52.198;5.004;2024-01-15T05:04:07;4.50;;;0.75;;
48667;SDS011;34453;52.198;5.004;2024-01-15T05:06:32;7.25;;;1.08;;
48667;SDS011;34453;52.198;5.004;2024-01-15T05:08:58;7.95;;;1.27;;
48667;SDS011;34453;52.198;5.004;2024-01-15T05:11:24;13.63;;;1.45;;
48667;SDS011;34453;52.198;5.004;2024-01-15T05:13:50;8.40;;;1.42;;
48667;SDS011;34453;52.198;5.004;2024-01-15T05:16:15;6.13;;;1.35;;
48667;SDS011;34453;52.198;5.004;2024-01-15T05:18:41;10.73;;;1.27;;
48667;SDS011;34453;52.198;5.004;2024-01-15T05:21:06;6.25;;;1.60;;
48667;SDS011;34453;52.198;5.004;2024-01-15T05:23:31;8.68;;;1.80;;
48667;SDS011;34453;52.198;5.004;2024-01-15T05:25:57;10.02;;;1.73;;
48667;SDS011;34453;52.198;5.004;2024-01-15T05:28:23;7.32;;;1.17;;
48667;SDS011;34453;52.198;5.004;2024-01-15T05:30:48;7.25;;;1.88;;
48667;SDS011;34453;52.198;5.004;2024-01-15T05:33:15;12.75;;;1.92;;
48667;SDS011;34453;52.198;5.004;2024-01-15T05:35:41;5.68;;;1.45;;
48667;SDS011;34453;52.198;5.004;2024-01-15T05:38:06;8.00;;;1.55;;
48667;SDS011;34453;52.198;5.004;2024-01-15T05:40:32;7.25;;;2.00;;
48667;SDS011;34453;52.198;5.004;2024-01-15T05:42:57;4.13;;;1.65;;
48667;SDS011;34453;52.198;5.004;2024-01-15T05:45:23;5.88;;;1.52;;
48667;SDS011;34453;52.198;5.004;2024-01-15T05:47:48;6.75;;;1.35;;
48667;SDS011;34453;52.198;5.004;2024-01-15T05:50:14;6.90;;;1.20;;
48667;SDS011;34453;52.198;5.004;2024-01-15T05:52:40;9.85;;;2.15;;
48667;SDS011;34453;52.198;5.004;2024-01-15T05:55:07;18.45;;;7.15;;
48667;SDS011;34453;52.198;5.004;2024-01-15T05:57:32;10.02;;;4.57;;
48667;SDS011;34453;52.198;5.004;2024-01-15T05:59:58;23.85;;;9.57;;
48667;SDS011;34453;52.198;5.004;2024-01-15T06:02:23;3.60;;;1.98;;
48667;SDS011;34453;52.198;5.004;2024-01-15T06:04:49;14.25;;;1.98;;
48667;SDS011;34453;52.198;5.004;2024-01-15T06:07:14;8.32;;;2.65;;
48667;SDS011;34453;52.198;5.004;2024-01-15T06:09:39;13.38;;;1.73;;
48667;SDS011;34453;52.198;5.004;2024-01-15T06:12:06;10.20;;;1.38;;
48667;SDS011;34453;52.198;5.004;2024-01-15T06:14:32;2.17;;;1.73;;
48667;SDS011;34453;52.198;5.004;2024-01-15T06:16:58;5.32;;;1.90;;
48667;SDS011;34453;52.198;5.004;2024-01-15T06:19:23;13.80;;;6.13;;
48667;SDS011;34453;52.198;5.004;2024-01-15T06:21:48;12.63;;;1.65;;
48667;SDS011;34453;52.198;5.004;2024-01-15T06:24:14;12.77;;;1.40;;
48667;SDS011;34453;52.198;5.004;2024-01-15T06:26:40;7.45;;;1.25;;
48667;SDS011;34453;52.198;5.004;2024-01-15T06:29:06;6.03;;;1.77;;
48667;SDS011;34453;52.198;5.004;2024-01-15T06:31:31;7.90;;;1.40;;
48667;SDS011;34453;52.198;5.004;2024-01-15T06:33:57;6.05;;;1.30;;
48667;SDS011;34453;52.198;5.004;2024-01-15T06:36:23;7.97;;;1.15;;
48667;SDS011;34453;52.198;5.004;2024-01-15T06:38:48;5.80;;;1.80;;
48667;SDS011;34453;52.198;5.004;2024-01-15T06:41:13;5.45;;;1.40;;
48667;SDS011;34453;52.198;5.004;2024-01-15T06:43:39;8.70;;;1.45;;
48667;SDS011;34453;52.198;5.004;2024-01-15T06:49:26;8.88;;;2.60;;
48667;SDS011;34453;52.198;5.004;2024-01-15T06:51:51;2.85;;;1.10;;
48667;SDS011;34453;52.198;5.004;2024-01-15T06:54:17;8.05;;;2.78;;
48667;SDS011;34453;52.198;5.004;2024-01-15T06:56:42;14.80;;;4.68;;
48667;SDS011;34453;52.198;5.004;2024-01-15T06:59:08;11.95;;;3.08;;
48667;SDS011;34453;52.198;5.004;2024-01-15T07:01:33;2.17;;;2.00;;
48667;SDS011;34453;52.198;5.004;2024-01-15T07:03:59;3.72;;;1.80;;
48667;SDS011;34453;52.198;5.004;2024-01-15T07:06:24;7.60;;;2.40;;
48667;SDS011;34453;52.198;5.004;2024-01-15T07:08:50;4.68;;;2.83;;
48667;SDS011;34453;52.198;5.004;2024-01-15T07:11:16;8.57;;;5.22;;
48667;SDS011;34453;52.198;5.004;2024-01-15T07:13:41;10.02;;;7.70;;
48667;SDS011;34453;52.198;5.004;2024-01-15T07:16:07;16.30;;;6.55;;
48667;SDS011;34453;52.198;5.004;2024-01-15T07:18:32;5.97;;;2.78;;
48667;SDS011;34453;52.198;5.004;2024-01-15T07:20:58;3.25;;;1.45;;
48667;SDS011;34453;52.198;5.004;2024-01-15T07:23:24;10.13;;;1.58;;
48667;SDS011;34453;52.198;5.004;2024-01-15T07:25:50;6.10;;;1.55;;
48667;SDS011;34453;52.198;5.004;2024-01-15T07:28:16;9.48;;;1.58;;
48667;SDS011;34453;52.198;5.004;2024-01-15T07:30:41;6.03;;;1.02;;
48667;SDS011;34453;52.198;5.004;2024-01-15T07:33:07;4.38;;;1.15;;
48667;SDS011;34453;52.198;5.004;2024-01-15T07:35:32;6.70;;;5.72;;
48667;SDS011;34453;52.198;5.004;2024-01-15T07:37:58;8.52;;;2.22;;
48667;SDS011;34453;52.198;5.004;2024-01-15T07:40:23;8.55;;;1.30;;
48667;SDS011;34453;52.198;5.004;2024-01-15T07:42:50;10.55;;;2.08;;
48667;SDS011;34453;52.198;5.004;2024-01-15T07:45:16;6.60;;;1.40;;
48667;SDS011;34453;52.198;5.004;2024-01-15T07:47:42;8.95;;;1.20;;
48667;SDS011;34453;52.198;5.004;2024-01-15T07:50:09;10.32;;;1.27;;
48667;SDS011;34453;52.198;5.004;2024-01-15T07:52:36;2.97;;;0.90;;
48667;SDS011;34453;52.198;5.004;2024-01-15T07:55:02;4.90;;;1.38;;
48667;SDS011;34453;52.198;5.004;2024-01-15T07:57:30;11.63;;;1.42;;
48667;SDS011;34453;52.198;5.004;2024-01-15T07:59:56;8.50;;;0.80;;
48667;SDS011;34453;52.198;5.004;2024-01-15T08:02:21;9.80;;;1.67;;
48667;SDS011;34453;52.198;5.004;2024-01-15T08:04:47;8.95;;;1.17;;
48667;SDS011;34453;52.198;5.004;2024-01-15T08:07:12;7.07;;;1.13;;
48667;SDS011;34453;52.198;5.004;2024-01-15T08:09:38;12.02;;;1.33;;
48667;SDS011;34453;52.198;5.004;2024-01-15T08:12:04;10.10;;;2.58;;
48667;SDS011;34453;52.198;5.004;2024-01-15T08:14:31;8.10;;;2.50;;
48667;SDS011;34453;52.198;5.004;2024-01-15T08:16:56;12.40;;;2.17;;
48667;SDS011;34453;52.198;5.004;2024-01-15T08:19:22;6.72;;;2.10;;
48667;SDS011;34453;52.198;5.004;2024-01-15T08:21:47;5.57;;;2.80;;
48667;SDS011;34453;52.198;5.004;2024-01-15T08:24:14;6.28;;;1.58;;
48667;SDS011;34453;52.198;5.004;2024-01-15T08:26:40;14.63;;;1.15;;
48667;SDS011;34453;52.198;5.004;2024-01-15T08:29:05;3.95;;;1.17;;
48667;SDS011;34453;52.198;5.004;2024-01-15T08:31:31;6.32;;;1.95;;
48667;SDS011;34453;52.198;5.004;2024-01-15T08:33:56;7.10;;;1.48;;
48667;SDS011;34453;52.198;5.004;2024-01-15T08:36:22;4.20;;;1.20;;
48667;SDS011;34453;52.198;5.004;2024-01-15T08:38:49;8.05;;;1.35;;
48667;SDS011;34453;52.198;5.004;2024-01-15T08:41:14;9.15;;;1.40;;
48667;SDS011;34453;52.198;5.004;2024-01-15T08:43:40;2.50;;;1.05;;
48667;SDS011;34453;52.198;5.004;2024-01-15T08:46:05;15.52;;;1.95;;
48667;SDS011;34453;52.198;5.004;2024-01-15T08:48:32;1.92;;;1.30;;
48667;SDS011;34453;52.198;5.004;2024-01-15T08:50:57;14.32;;;2.42;;
48667;SDS011;34453;52.198;5.004;2024-01-15T08:53:23;7.75;;;3.33;;
48667;SDS011;34453;52.198;5.004;2024-01-15T08:55:48;8.23;;;3.92;;
48667;SDS011;34453;52.198;5.004;2024-01-15T08:58:14;8.00;;;1.98;;
48667;SDS011;34453;52.198;5.004;2024-01-15T09:00:40;10.25;;;2.08;;
48667;SDS011;34453;52.198;5.004;2024-01-15T09:03:06;7.32;;;1.85;;
48667;SDS011;34453;52.198;5.004;2024-01-15T09:05:33;6.70;;;1.08;;
48667;SDS011;34453;52.198;5.004;2024-01-15T09:07:58;3.05;;;1.08;;
48667;SDS011;34453;52.198;5.004;2024-01-15T09:10:24;5.63;;;1.10;;
48667;SDS011;34453;52.198;5.004;2024-01-15T09:12:49;5.80;;;1.15;;
48667;SDS011;34453;52.198;5.004;2024-01-15T09:15:16;6.03;;;2.80;;
48667;SDS011;34453;52.198;5.004;2024-01-15T09:17:41;17.17;;;2.25;;
48667;SDS011;34453;52.198;5.004;2024-01-15T09:20:08;6.45;;;1.40;;
48667;SDS011;34453;52.198;5.004;2024-01-15T09:22:34;13.98;;;2.33;;
48667;SDS011;34453;52.198;5.004;2024-01-15T09:25:00;8.20;;;1.85;;
48667;SDS011;34453;52.198;5.004;2024-01-15T09:27:26;17.02;;;1.52;;
48667;SDS011;34453;52.198;5.004;2024-01-15T09:29:52;12.15;;;1.83;;
48667;SDS011;34453;52.198;5.004;2024-01-15T09:32:18;4.03;;;1.00;;
48667;SDS011;34453;52.198;5.004;2024-01-15T09:34:43;13.13;;;1.52;;
48667;SDS011;34453;52.198;5.004;2024-01-15T09:37:11;8.48;;;1.65;;
48667;SDS011;34453;52.198;5.004;2024-01-15T09:39:36;7.25;;;1.35;;
48667;SDS011;34453;52.198;5.004;2024-01-15T09:42:02;5.90;;;0.93;;
48667;SDS011;34453;52.198;5.004;2024-01-15T09:44:28;6.18;;;1.13;;
48667;SDS011;34453;52.198;5.004;2024-01-15T09:46:55;9.00;;;1.13;;
48667;SDS011;34453;52.198;5.004;2024-01-15T09:49:21;13.55;;;1.65;;
48667;SDS011;34453;52.198;5.004;2024-01-15T09:51:47;10.35;;;2.03;;
48667;SDS011;34453;52.198;5.004;2024-01-15T09:54:12;4.78;;;0.98;;
48667;SDS011;34453;52.198;5.004;2024-01-15T09:56:42;10.18;;;1.02;;
48667;SDS011;34453;52.198;5.004;2024-01-15T09:59:10;6.72;;;1.42;;
48667;SDS011;34453;52.198;5.004;2024-01-15T10:01:38;10.63;;;2.08;;
48667;SDS011;34453;52.198;5.004;2024-01-15T10:04:05;14.38;;;2.13;;
48667;SDS011;34453;52.198;5.004;2024-01-15T10:06:31;7.38;;;1.23;;
48667;SDS011;34453;52.198;5.004;2024-01-15T10:08:57;12.60;;;1.67;;
48667;SDS011;34453;52.198;5.004;2024-01-15T10:11:24;13.65;;;1.67;;
48667;SDS011;34453;52.198;5.004;2024-01-15T10:13:50;8.93;;;2.60;;
48667;SDS011;34453;52.198;5.004;2024-01-15T10:16:21;9.43;;;1.60;;
48667;SDS011;34453;52.198;5.004;2024-01-15T10:18:47;9.95;;;3.92;;
48667;SDS011;34453;52.198;5.004;2024-01-15T10:21:13;8.30;;;1.73;;
48667;SDS011;34453;52.198;5.004;2024-01-15T10:23:39;9.63;;;1.45;;
48667;SDS011;34453;52.198;5.004;2024-01-15T10:26:05;7.18;;;2.13;;
48667;SDS011;34453;52.198;5.004;2024-01-15T10:28:30;12.57;;;2.20;;
48667;SDS011;34453;52.198;5.004;2024-01-15T10:30:58;8.68;;;1.70;;
48667;SDS011;34453;52.198;5.004;2024-01-15T10:33:24;7.97;;;1.70;;
48667;SDS011;34453;52.198;5.004;2024-01-15T10:35:53;3.83;;;1.98;;
48667;SDS011;34453;52.198;5.004;2024-01-15T10:38:20;16.00;;;5.47;;
48667;SDS011;34453;52.198;5.004;2024-01-15T10:40:53;15.77;;;4.97;;
48667;SDS011;34453;52.198;5.004;2024-01-15T10:43:20;12.63;;;5.93;;
48667;SDS011;34453;52.198;5.004;2024-01-15T10:45:46;13.48;;;4.03;;
48667;SDS011;34453;52.198;5.004;2024-01-15T10:48:17;17.20;;;5.95;;
48667;SDS011;34453;52.198;5.004;2024-01-15T10:50:45;13.38;;;3.85;;
48667;SDS011;34453;52.198;5.004;2024-01-15T10:53:11;16.92;;;6.63;;
48667;SDS011;34453;52.198;5.004;2024-01-15T10:55:41;18.27;;;7.28;;
48667;SDS011;34453;52.198;5.004;2024-01-15T10:58:08;23.10;;;9.73;;
48667;SDS011;34453;52.198;5.004;2024-01-15T11:00:35;24.40;;;7.88;;
48667;SDS011;34453;52.198;5.004;2024-01-15T11:03:02;40.83;;;13.77;;
48667;SDS011;34453;52.198;5.004;2024-01-15T11:05:51;19.35;;;8.52;;
48667;SDS011;34453;52.198;5.004;2024-01-15T11:08:18;28.90;;;10.82;;
48667;SDS011;34453;52.198;5.004;2024-01-15T11:10:47;40.60;;;13.93;;
48667;SDS011;34453;52.198;5.004;2024-01-15T11:13:20;18.75;;;5.45;;
48667;SDS011;34453;52.198;5.004;2024-01-15T11:15:57;12.90;;;4.53;;
48667;SDS011;34453;52.198;5.004;2024-01-15T11:18:31;14.77;;;8.52;;
48667;SDS011;34453;52.198;5.004;2024-01-15T11:23:44;4.38;;;1.40;;
48667;SDS011;34453;52.198;5.004;2024-01-15T11:26:57;1.55;;;0.88;;
48667;SDS011;34453;52.198;5.004;2024-01-15T11:29:04;8.30;;;1.40;;
48667;SDS011;34453;52.198;5.004;2024-01-15T11:34:07;2.80;;;0.80;;
48667;SDS011;34453;52.198;5.004;2024-01-15T11:41:52;2.97;;;1.00;;
48667;SDS011;34453;52.198;5.004;2024-01-15T11:44:20;2.47;;;1.20;;
48667;SDS011;34453;52.198;5.004;2024-01-15T11:46:49;0.80;;;0.80;;
48667;SDS011;34453;52.198;5.004;2024-01-15T11:52:15;1.90;;;1.20;;
48667;SDS011;34453;52.198;5.004;2024-01-15T11:54:44;2.80;;;0.75;;
48667;SDS011;34453;52.198;5.004;2024-01-15T12:00:05;2.58;;;1.08;;
48667;SDS011;34453;52.198;5.004;2024-01-15T12:02:33;4.32;;;0.70;;
48667;SDS011;34453;52.198;5.004;2024-01-15T12:04:59;2.67;;;0.50;;
48667;SDS011;34453;52.198;5.004;2024-01-15T12:07:24;0.90;;;0.77;;
48667;SDS011;34453;52.198;5.004;2024-01-15T12:09:50;5.40;;;1.48;;
48667;SDS011;34453;52.198;5.004;2024-01-15T12:12:27;0.50;;;0.50;;
48667;SDS011;34453;52.198;5.004;2024-01-15T12:15:03;2.83;;;0.95;;
48667;SDS011;34453;52.198;5.004;2024-01-15T12:17:28;3.47;;;2.20;;
48667;SDS011;34453;52.198;5.004;2024-01-15T12:19:54;3.95;;;1.10;;
48667;SDS011;34453;52.198;5.004;2024-01-15T12:22:21;6.38;;;1.20;;
48667;SDS011;34453;52.198;5.004;2024-01-15T12:24:46;6.00;;;1.30;;
48667;SDS011;34453;52.198;5.004;2024-01-15T12:27:12;17.15;;;1.83;;
48667;SDS011;34453;52.198;5.004;2024-01-15T12:29:38;6.72;;;2.30;;
48667;SDS011;34453;52.198;5.004;2024-01-15T12:32:04;15.15;;;2.05;;
48667;SDS011;34453;52.198;5.004;2024-01-15T12:34:30;13.30;;;1.50;;
48667;SDS011;34453;52.198;5.004;2024-01-15T12:36:57;8.77;;;3.10;;
48667;SDS011;34453;52.198;5.004;2024-01-15T12:39:25;10.70;;;1.98;;
48667;SDS011;34453;52.198;5.004;2024-01-15T12:41:51;9.45;;;1.63;;
48667;SDS011;34453;52.198;5.004;2024-01-15T12:44:16;10.98;;;1.90;;
48667;SDS011;34453;52.198;5.004;2024-01-15T12:46:42;8.65;;;1.35;;
48667;SDS011;34453;52.198;5.004;2024-01-15T12:49:08;22.83;;;7.53;;
48667;SDS011;34453;52.198;5.004;2024-01-15T12:51:36;21.13;;;8.70;;
48667;SDS011;34453;52.198;5.004;2024-01-15T12:54:03;33.00;;;15.85;;
48667;SDS011;34453;52.198;5.004;2024-01-15T12:56:29;13.30;;;5.45;;
48667;SDS011;34453;52.198;5.004;2024-01-15T12:58:55;15.98;;;3.75;;
48667;SDS011;34453;52.198;5.004;2024-01-15T13:01:20;15.38;;;9.88;;
48667;SDS011;34453;52.198;5.004;2024-01-15T13:03:46;42.13;;;18.35;;
48667;SDS011;34453;52.198;5.004;2024-01-15T13:06:12;28.15;;;10.70;;
48667;SDS011;34453;52.198;5.004;2024-01-15T13:08:38;31.35;;;13.63;;
48667;SDS011;34453;52.198;5.004;2024-01-15T13:11:03;27.75;;;11.00;;
48667;SDS011;34453;52.198;5.004;2024-01-15T13:13:29;38.58;;;14.30;;
48667;SDS011;34453;52.198;5.004;2024-01-15T13:15:55;39.58;;;15.65;;
48667;SDS011;34453;52.198;5.004;2024-01-15T13:18:21;51.70;;;18.42;;
48667;SDS011;34453;52.198;5.004;2024-01-15T13:20:46;46.80;;;16.40;;
48667;SDS011;34453;52.198;5.004;2024-01-15T13:23:12;61.35;;;25.02;;
48667;SDS011;34453;52.198;5.004;2024-01-15T13:25:38;79.65;;;28.35;;
48667;SDS011;34453;52.198;5.004;2024-01-15T13:28:04;39.33;;;15.52;;
48667;SDS011;34453;52.198;5.004;2024-01-15T13:30:30;39.42;;;15.43;;
48667;SDS011;34453;52.198;5.004;2024-01-15T13:32:56;12.63;;;6.05;;
48667;SDS011;34453;52.198;5.004;2024-01-15T13:35:22;7.68;;;4.00;;
48667;SDS011;34453;52.198;5.004;2024-01-15T13:37:48;22.92;;;7.05;;
48667;SDS011;34453;52.198;5.004;2024-01-15T13:40:14;14.25;;;6.72;;
48667;SDS011;34453;52.198;5.004;2024-01-15T13:42:45;14.38;;;4.00;;
48667;SDS011;34453;52.198;5.004;2024-01-15T13:45:12;15.20;;;2.47;;
48667;SDS011;34453;52.198;5.004;2024-01-15T13:47:39;13.07;;;5.75;;
48667;SDS011;34453;52.198;5.004;2024-01-15T13:50:07;7.50;;;4.00;;
48667;SDS011;34453;52.198;5.004;2024-01-15T13:52:33;13.02;;;3.55;;
48667;SDS011;34453;52.198;5.004;2024-01-15T13:54:58;5.68;;;1.73;;
48667;SDS011;34453;52.198;5.004;2024-01-15T13:57:24;8.63;;;1.23;;
48667;SDS011;34453;52.198;5.004;2024-01-15T13:59:49;3.80;;;1.80;;
48667;SDS011;34453;52.198;5.004;2024-01-15T14:02:15;11.55;;;3.53;;
48667;SDS011;34453;52.198;5.004;2024-01-15T14:04:40;14.00;;;1.90;;
48667;SDS011;34453;52.198;5.004;2024-01-15T14:07:09;11.70;;;1.92;;
48667;SDS011;34453;52.198;5.004;2024-01-15T14:09:34;16.95;;;2.03;;
48667;SDS011;34453;52.198;5.004;2024-01-15T14:11:59;20.88;;;2.40;;
48667;SDS011;34453;52.198;5.004;2024-01-15T14:14:25;9.27;;;1.70;;
48667;SDS011;34453;52.198;5.004;2024-01-15T14:16:51;10.80;;;2.05;;
48667;SDS011;34453;52.198;5.004;2024-01-15T14:19:16;6.85;;;2.13;;
48667;SDS011;34453;52.198;5.004;2024-01-15T14:21:43;15.30;;;3.38;;
48667;SDS011;34453;52.198;5.004;2024-01-15T14:24:08;5.25;;;2.38;;
48667;SDS011;34453;52.198;5.004;2024-01-15T14:26:34;9.70;;;1.95;;
48667;SDS011;34453;52.198;5.004;2024-01-15T14:28:59;15.35;;;2.90;;
48667;SDS011;34453;52.198;5.004;2024-01-15T14:31:25;9.10;;;2.13;;
48667;SDS011;34453;52.198;5.004;2024-01-15T14:33:51;17.65;;;2.33;;
48667;SDS011;34453;52.198;5.004;2024-01-15T14:36:17;10.63;;;2.50;;
48667;SDS011;34453;52.198;5.004;2024-01-15T14:38:43;11.82;;;2.75;;
48667;SDS011;34453;52.198;5.004;2024-01-15T14:41:08;6.72;;;1.88;;
48667;SDS011;34453;52.198;5.004;2024-01-15T14:43:34;9.23;;;2.75;;
48667;SDS011;34453;52.198;5.004;2024-01-15T14:46:00;13.77;;;2.58;;
48667;SDS011;34453;52.198;5.004;2024-01-15T14:48:25;10.93;;;1.55;;
48667;SDS011;34453;52.198;5.004;2024-01-15T14:50:51;15.02;;;1.73;;
48667;SDS011;34453;52.198;5.004;2024-01-15T14:53:16;6.15;;;1.75;;
48667;SDS011;34453;52.198;5.004;2024-01-15T14:55:42;6.85;;;1.45;;